Time;durP1;ratioP1;P1;durP2;ratioP2;P2;SDS_P1;SDS_P2;PMS_P1;PMS_P2;Temp;Humidity;BMP_temperature;BMP_pressure;BME280_temperature;BME280_humidity;BME280_pressure;Samples;Min_cycle;Max_cycle;Signal;HPM_P1;HPM_P2
2023/09/09 00:01:29;;;;;;;66.85;33.95;;;19.90;99.90;;;;;;5006700;28;20038;-72
2023/09/09 00:03:56;;;;;;;71.32;33.47;;;20.00;99.90;;;;;;5002905;28;20035;-70
2023/09/09 00:06:22;;;;;;;68.63;34.47;;;19.90;99.90;;;;;;5001497;28;20050;-70
2023/09/09 00:08:48;;;;;;;64.28;32.58;;;19.90;99.90;;;;;;5003948;28;20135;-70
2023/09/09 00:11:13;;;;;;;63.25;31.27;;;19.90;99.90;;;;;;5010179;28;20801;-70
2023/09/09 00:13:39;;;;;;;69.78;34.50;;;19.90;99.90;;;;;;5006555;28;20583;-72
2023/09/09 00:16:05;;;;;;;66.95;34.22;;;19.90;99.90;;;;;;5007046;28;20132;-71
2023/09/09 00:18:31;;;;;;;73.35;36.13;;;19.80;99.90;;;;;;5005480;28;20041;-70
2023/09/09 00:20:56;;;;;;;68.28;33.78;;;19.80;99.90;;;;;;5003149;28;20054;-71
2023/09/09 00:23:22;;;;;;;69.22;35.58;;;19.80;99.90;;;;;;5006829;28;20542;-71
2023/09/09 00:25:48;;;;;;;67.60;32.28;;;19.70;99.90;;;;;;5004192;28;20480;-71
2023/09/09 00:28:14;;;;;;;67.80;33.20;;;19.70;99.90;;;;;;4995773;28;20034;-71
2023/09/09 00:30:40;;;;;;;73.75;36.25;;;19.70;99.90;;;;;;4993803;28;20061;-70
2023/09/09 00:33:08;;;;;;;74.72;37.35;;;19.70;99.90;;;;;;4999302;28;20505;-74
2023/09/09 00:35:33;;;;;;;77.38;38.05;;;19.60;99.90;;;;;;4997031;28;20048;-73
2023/09/09 00:37:59;;;;;;;73.72;37.50;;;19.60;99.90;;;;;;4995136;28;20042;-69
2023/09/09 00:40:24;;;;;;;77.22;37.63;;;19.60;99.90;;;;;;4997546;28;20054;-72
2023/09/09 00:42:50;;;;;;;72.63;36.70;;;19.50;99.90;;;;;;5004202;28;20374;-71
2023/09/09 00:45:16;;;;;;;76.25;38.75;;;19.50;99.90;;;;;;4999581;28;20389;-72
2023/09/09 00:47:42;;;;;;;82.28;39.80;;;19.50;99.90;;;;;;5000445;28;20037;-72
2023/09/09 00:50:11;;;;;;;81.97;41.05;;;19.40;99.90;;;;;;4996813;28;20037;-71
2023/09/09 00:52:42;;;;;;;85.68;38.85;;;19.40;99.90;;;;;;4997039;28;20052;-70
2023/09/09 00:55:10;;;;;;;80.18;38.17;;;19.40;99.90;;;;;;5003545;28;20548;-70
2023/09/09 00:57:36;;;;;;;78.72;38.35;;;19.30;99.90;;;;;;5012986;28;20115;-70
2023/09/09 01:00:09;;;;;;;84.05;39.00;;;19.30;99.90;;;;;;5002307;28;20637;-70
2023/09/09 01:02:39;;;;;;;79.10;39.10;;;19.30;99.90;;;;;;4995457;28;20049;-70
2023/09/09 01:05:06;;;;;;;72.97;38.70;;;19.30;99.90;;;;;;4998181;28;20064;-71
2023/09/09 01:07:48;;;;;;;78.88;38.63;;;19.20;99.90;;;;;;5002052;28;20041;-70
2023/09/09 01:10:18;;;;;;;84.85;40.42;;;19.20;99.90;;;;;;4994810;28;20038;-71
2023/09/09 01:12:44;;;;;;;59.88;29.65;;;19.20;99.90;;;;;;5004514;28;20026;-70
2023/09/09 01:15:11;;;;;;;84.80;41.78;;;19.20;99.90;;;;;;4996856;28;20045;-72
2023/09/09 01:17:37;;;;;;;90.68;44.55;;;19.20;99.90;;;;;;4999317;28;20494;-70
2023/09/09 01:20:12;;;;;;;88.22;43.88;;;19.20;99.90;;;;;;4999749;28;20506;-71
2023/09/09 01:22:39;;;;;;;96.93;43.70;;;19.20;99.90;;;;;;4997615;28;20026;-71
2023/09/09 01:25:06;;;;;;;85.10;42.88;;;19.10;99.90;;;;;;4996354;28;20584;-70
2023/09/09 01:27:31;;;;;;;97.68;44.55;;;19.10;99.90;;;;;;4997285;28;20038;-70
2023/09/09 01:29:57;;;;;;;94.35;44.80;;;19.10;99.90;;;;;;4999483;28;20048;-72
2023/09/09 01:32:23;;;;;;;92.93;41.22;;;19.10;99.90;;;;;;4995121;28;20442;-70
2023/09/09 01:34:50;;;;;;;103.80;45.38;;;19.10;99.90;;;;;;4997209;28;20556;-69
2023/09/09 01:37:16;;;;;;;90.13;43.05;;;19.00;99.90;;;;;;4995139;28;20117;-71
2023/09/09 01:39:41;;;;;;;96.45;43.30;;;19.00;99.90;;;;;;4997171;28;20149;-71
2023/09/09 01:42:07;;;;;;;95.65;42.83;;;19.00;99.90;;;;;;4992538;28;20065;-71
2023/09/09 01:44:32;;;;;;;93.45;43.35;;;19.00;99.90;;;;;;4994279;28;20061;-71
2023/09/09 01:46:58;;;;;;;88.80;42.42;;;18.90;99.90;;;;;;4998197;28;20035;-70
2023/09/09 01:49:23;;;;;;;93.13;42.03;;;18.90;99.90;;;;;;4997589;28;20563;-71
2023/09/09 01:51:49;;;;;;;92.03;40.88;;;18.90;99.90;;;;;;5005212;28;20088;-70
2023/09/09 01:54:14;;;;;;;100.68;45.03;;;18.80;99.90;;;;;;4998191;28;20046;-71
2023/09/09 01:56:40;;;;;;;91.82;42.42;;;18.80;99.90;;;;;;4999445;28;20026;-70
2023/09/09 01:59:05;;;;;;;85.22;42.83;;;18.80;99.90;;;;;;5014004;28;20406;-72
2023/09/09 02:01:31;;;;;;;91.65;43.40;;;18.70;99.90;;;;;;5000038;28;20046;-72
2023/09/09 02:03:57;;;;;;;94.65;41.58;;;18.80;99.90;;;;;;4997288;28;20038;-70
2023/09/09 02:06:22;;;;;;;89.25;41.50;;;18.70;99.90;;;;;;4998144;28;20049;-70
2023/09/09 02:08:48;;;;;;;84.25;41.95;;;18.70;99.90;;;;;;4998226;28;20441;-70
2023/09/09 02:11:13;;;;;;;98.47;43.30;;;18.60;99.90;;;;;;5005059;28;20046;-72
2023/09/09 02:13:39;;;;;;;106.10;44.70;;;18.60;99.90;;;;;;4999023;28;20034;-72
2023/09/09 02:16:07;;;;;;;96.10;44.03;;;18.60;99.90;;;;;;5000781;28;20038;-71
2023/09/09 02:18:37;;;;;;;94.85;43.28;;;18.60;99.90;;;;;;4998982;28;20045;-71
2023/09/09 02:21:05;;;;;;;92.65;42.78;;;18.50;99.90;;;;;;4997967;28;20042;-71
2023/09/09 02:23:30;;;;;;;95.45;42.90;;;18.50;99.90;;;;;;4996946;28;20042;-71
2023/09/09 02:25:56;;;;;;;93.97;43.35;;;18.40;99.90;;;;;;5001797;28;20445;-72
2023/09/09 02:28:22;;;;;;;91.18;41.20;;;18.40;99.90;;;;;;5001941;28;20049;-71
2023/09/09 02:30:48;;;;;;;80.07;39.55;;;18.40;99.90;;;;;;4999465;28;20034;-71
2023/09/09 02:33:14;;;;;;;84.88;39.60;;;18.40;99.90;;;;;;5003442;28;20030;-72
2023/09/09 02:35:45;;;;;;;81.07;38.45;;;18.30;99.90;;;;;;5001235;28;20490;-71
2023/09/09 02:38:11;;;;;;;84.03;38.58;;;18.30;99.90;;;;;;5001919;28;20638;-73
2023/09/09 02:40:36;;;;;;;84.47;40.22;;;18.30;99.90;;;;;;5003670;28;20038;-71
2023/09/09 02:43:02;;;;;;;88.63;41.75;;;18.20;99.90;;;;;;5005138;28;20061;-72
2023/09/09 02:45:28;;;;;;;77.65;35.92;;;18.20;99.90;;;;;;5003122;28;20061;-71
2023/09/09 02:47:53;;;;;;;68.60;33.47;;;18.20;99.90;;;;;;5005655;28;20092;-71
2023/09/09 02:50:19;;;;;;;67.85;33.60;;;18.20;99.90;;;;;;5005737;28;20034;-71
2023/09/09 02:52:47;;;;;;;63.83;31.80;;;18.10;99.90;;;;;;5001451;28;20041;-71
2023/09/09 02:55:13;;;;;;;64.05;32.38;;;18.10;99.90;;;;;;5009992;28;20018;-72
2023/09/09 02:57:38;;;;;;;61.22;32.47;;;18.10;99.90;;;;;;5011647;28;20041;-71
2023/09/09 03:00:06;;;;;;;58.00;29.08;;;18.00;99.90;;;;;;5008824;28;20030;-72
2023/09/09 03:02:32;;;;;;;57.75;30.67;;;18.10;99.90;;;;;;5004081;28;20085;-71
2023/09/09 03:04:58;;;;;;;63.05;30.95;;;18.00;99.90;;;;;;5007028;28;20042;-72
2023/09/09 03:07:23;;;;;;;63.97;31.98;;;18.00;99.90;;;;;;5006468;28;20030;-71
2023/09/09 03:09:49;;;;;;;72.30;32.03;;;18.00;99.90;;;;;;5006656;28;20471;-71
2023/09/09 03:12:20;;;;;;;66.93;31.60;;;18.00;99.90;;;;;;5007041;28;20041;-71
2023/09/09 03:14:47;;;;;;;65.38;32.53;;;18.00;99.90;;;;;;5003408;28;20117;-72
2023/09/09 03:17:13;;;;;;;67.10;32.42;;;18.10;99.90;;;;;;5005228;28;20036;-70
2023/09/09 03:19:39;;;;;;;71.85;34.03;;;18.10;99.90;;;;;;5004688;28;20448;-72
2023/09/09 03:22:04;;;;;;;65.38;31.63;;;18.10;99.90;;;;;;5003040;28;20553;-72
2023/09/09 03:24:30;;;;;;;61.00;31.55;;;18.10;99.90;;;;;;5000232;28;20112;-70
2023/09/09 03:26:55;;;;;;;70.15;34.30;;;18.10;99.90;;;;;;5005851;28;20041;-70
2023/09/09 03:29:21;;;;;;;71.60;32.78;;;18.20;99.90;;;;;;5007573;28;20435;-71
2023/09/09 03:31:46;;;;;;;64.53;32.30;;;18.20;99.90;;;;;;4998698;28;20394;-71
2023/09/09 03:34:12;;;;;;;66.00;30.73;;;18.20;99.90;;;;;;4999200;28;20417;-71
2023/09/09 03:36:38;;;;;;;68.88;31.95;;;18.20;99.90;;;;;;5001475;28;20033;-71
2023/09/09 03:39:04;;;;;;;71.53;32.42;;;18.20;99.90;;;;;;5002981;28;20486;-71
2023/09/09 03:41:30;;;;;;;69.05;32.50;;;18.20;99.90;;;;;;5003630;28;20034;-71
2023/09/09 03:43:56;;;;;;;63.67;28.92;;;18.20;99.90;;;;;;4999261;28;20092;-71
2023/09/09 03:46:21;;;;;;;78.65;32.85;;;18.10;99.90;;;;;;4996341;28;20034;-71
2023/09/09 03:48:47;;;;;;;73.95;33.17;;;18.10;99.90;;;;;;4998122;28;20056;-71
2023/09/09 03:51:12;;;;;;;77.97;33.17;;;18.10;99.90;;;;;;5003708;28;20034;-70
2023/09/09 03:53:38;;;;;;;80.45;33.88;;;18.20;99.90;;;;;;5001284;28;20107;-72
2023/09/09 03:56:04;;;;;;;83.45;33.28;;;18.20;99.90;;;;;;5004759;28;20038;-71
2023/09/09 03:58:30;;;;;;;89.43;35.95;;;18.20;99.90;;;;;;5002039;28;20056;-70
2023/09/09 04:01:07;;;;;;;92.30;35.63;;;18.20;99.90;;;;;;5006392;28;20517;-72
2023/09/09 04:03:34;;;;;;;74.22;31.42;;;18.20;99.90;;;;;;4999331;28;20160;-70
2023/09/09 04:06:04;;;;;;;89.57;33.60;;;18.20;99.90;;;;;;5000282;28;20034;-71
2023/09/09 04:08:30;;;;;;;81.75;32.53;;;18.20;99.90;;;;;;4998584;28;20501;-72
2023/09/09 04:10:56;;;;;;;96.45;33.58;;;18.20;99.90;;;;;;4998664;28;20031;-71
2023/09/09 04:13:21;;;;;;;70.68;27.75;;;18.20;99.90;;;;;;5006733;28;20042;-70
2023/09/09 04:15:47;;;;;;;55.42;25.90;;;18.20;99.90;;;;;;5004622;28;20087;-71
2023/09/09 04:18:12;;;;;;;63.10;28.80;;;18.20;99.90;;;;;;5002263;28;20492;-72
2023/09/09 04:20:38;;;;;;;63.78;26.15;;;18.10;99.90;;;;;;5000412;28;20402;-71
2023/09/09 04:23:04;;;;;;;59.97;28.58;;;18.10;99.90;;;;;;4996087;28;20041;-72
2023/09/09 04:25:29;;;;;;;54.50;26.35;;;18.00;99.90;;;;;;4999825;28;20042;-71
2023/09/09 04:27:55;;;;;;;72.70;28.65;;;18.00;99.90;;;;;;4998863;28;20038;-71
2023/09/09 04:30:21;;;;;;;58.53;28.17;;;18.00;99.90;;;;;;4992713;28;20034;-72
2023/09/09 04:32:46;;;;;;;52.17;26.73;;;18.00;99.90;;;;;;4993444;28;20070;-71
2023/09/09 04:35:12;;;;;;;51.60;26.83;;;18.00;99.90;;;;;;5000207;28;20038;-71
2023/09/09 04:37:38;;;;;;;53.90;26.95;;;17.90;99.90;;;;;;4999518;28;20030;-70
2023/09/09 04:40:05;;;;;;;52.45;26.58;;;17.90;99.90;;;;;;4995801;28;20018;-72
2023/09/09 04:42:32;;;;;;;58.50;25.90;;;17.90;99.90;;;;;;4996410;28;24180;-71
2023/09/09 04:44:58;;;;;;;57.10;26.80;;;17.90;99.90;;;;;;4996333;28;20065;-71
2023/09/09 04:47:24;;;;;;;52.45;24.70;;;17.90;99.90;;;;;;4992844;28;20097;-70
2023/09/09 04:49:50;;;;;;;69.03;25.85;;;17.90;99.90;;;;;;5000709;28;20116;-70
2023/09/09 04:52:15;;;;;;;46.33;23.70;;;17.90;99.90;;;;;;4999707;28;20033;-69
2023/09/09 04:54:42;;;;;;;50.97;23.38;;;17.80;99.90;;;;;;4998672;28;20061;-69
2023/09/09 04:57:08;;;;;;;47.85;24.45;;;17.80;99.90;;;;;;4997425;28;20085;-70
2023/09/09 04:59:34;;;;;;;47.30;23.77;;;17.80;99.90;;;;;;4996993;28;20034;-73
2023/09/09 05:02:00;;;;;;;55.10;24.42;;;17.80;99.90;;;;;;5001023;28;20421;-70
2023/09/09 05:04:25;;;;;;;42.03;23.20;;;17.70;99.90;;;;;;4994446;28;20449;-70
2023/09/09 05:06:53;;;;;;;45.85;24.17;;;17.70;99.90;;;;;;5001487;28;20034;-72
2023/09/09 05:09:19;;;;;;;44.38;22.35;;;17.70;99.90;;;;;;4996308;28;20034;-70
2023/09/09 05:11:45;;;;;;;45.78;23.95;;;17.70;99.90;;;;;;4994955;28;20449;-72
2023/09/09 05:14:10;;;;;;;57.72;23.95;;;17.70;99.90;;;;;;4992693;28;20054;-69
2023/09/09 05:16:37;;;;;;;66.05;22.65;;;17.70;99.90;;;;;;5001077;28;20029;-72
2023/09/09 05:19:02;;;;;;;45.00;20.60;;;17.70;99.90;;;;;;4999060;28;20033;-71
2023/09/09 05:21:28;;;;;;;49.47;21.90;;;17.60;99.90;;;;;;4995603;28;20038;-72
2023/09/09 05:23:54;;;;;;;50.60;21.95;;;17.60;99.90;;;;;;4999513;28;20034;-70
2023/09/09 05:26:20;;;;;;;50.63;22.20;;;17.60;99.90;;;;;;4999224;28;20038;-71
2023/09/09 05:28:46;;;;;;;51.42;22.83;;;17.60;99.90;;;;;;4999428;28;20033;-72
2023/09/09 05:31:13;;;;;;;54.88;24.05;;;17.60;99.90;;;;;;5000162;28;20034;-73
2023/09/09 05:33:39;;;;;;;64.72;23.48;;;17.70;99.90;;;;;;4998659;28;20220;-72
2023/09/09 05:36:05;;;;;;;62.65;23.52;;;17.70;99.90;;;;;;5000909;28;20121;-71
2023/09/09 05:38:30;;;;;;;98.63;26.48;;;17.70;99.90;;;;;;4998348;28;20064;-70
2023/09/09 05:40:56;;;;;;;87.38;26.63;;;17.70;99.90;;;;;;4994532;28;20057;-71
2023/09/09 05:43:21;;;;;;;89.50;28.13;;;17.70;99.90;;;;;;4997981;28;20033;-71
2023/09/09 05:45:47;;;;;;;119.35;28.88;;;17.80;99.90;;;;;;5001352;28;20092;-71
2023/09/09 05:48:13;;;;;;;124.45;31.58;;;17.80;99.90;;;;;;5001219;28;20092;-72
2023/09/09 05:50:38;;;;;;;178.60;33.15;;;17.80;99.90;;;;;;5002697;28;20112;-71
2023/09/09 05:53:04;;;;;;;183.65;33.22;;;17.80;99.90;;;;;;5000027;28;20041;-72
2023/09/09 05:55:30;;;;;;;233.93;35.97;;;17.80;99.90;;;;;;5000521;28;20034;-71
2023/09/09 05:57:55;;;;;;;143.80;27.83;;;17.80;99.90;;;;;;5001239;28;20506;-71
2023/09/09 06:00:21;;;;;;;170.90;33.20;;;17.80;99.90;;;;;;4997223;28;20033;-71
2023/09/09 06:02:46;;;;;;;94.78;27.75;;;17.80;99.90;;;;;;4998478;28;20034;-71
2023/09/09 06:05:14;;;;;;;112.30;30.00;;;17.90;99.90;;;;;;5001030;28;20026;-71
2023/09/09 06:07:40;;;;;;;151.52;32.28;;;17.90;99.90;;;;;;5004723;28;20132;-72
2023/09/09 06:10:06;;;;;;;113.50;30.05;;;17.90;99.90;;;;;;5003208;28;20062;-71
2023/09/09 06:12:31;;;;;;;139.48;31.40;;;17.90;99.90;;;;;;5001399;28;20046;-71
2023/09/09 06:14:57;;;;;;;75.15;26.50;;;17.90;99.90;;;;;;5000217;28;20030;-72
2023/09/09 06:17:22;;;;;;;109.45;29.42;;;18.00;99.90;;;;;;5000982;28;20037;-71
2023/09/09 06:19:48;;;;;;;97.10;27.98;;;18.00;99.90;;;;;;5005747;28;20498;-71
2023/09/09 06:22:13;;;;;;;67.10;26.70;;;18.00;99.90;;;;;;5004825;28;20391;-71
2023/09/09 06:24:39;;;;;;;95.18;28.27;;;18.00;99.90;;;;;;5007249;28;20042;-72
2023/09/09 06:27:05;;;;;;;70.32;26.95;;;18.00;99.90;;;;;;5001803;28;20030;-72
2023/09/09 06:29:30;;;;;;;61.67;24.85;;;18.00;99.90;;;;;;5002097;28;20033;-72
2023/09/09 06:31:57;;;;;;;57.17;25.13;;;18.10;99.90;;;;;;5001576;28;20812;-71
2023/09/09 06:34:22;;;;;;;70.07;25.38;;;18.20;99.90;;;;;;5006049;28;20045;-71
2023/09/09 06:36:48;;;;;;;79.90;25.60;;;18.20;99.90;;;;;;5005192;28;20086;-71
2023/09/09 06:39:14;;;;;;;58.03;26.30;;;18.20;99.90;;;;;;5004011;28;20596;-72
2023/09/09 06:41:39;;;;;;;60.08;26.08;;;18.20;99.90;;;;;;5001818;28;20046;-71
2023/09/09 06:44:05;;;;;;;50.78;23.75;;;18.20;99.90;;;;;;5002425;28;20030;-72
2023/09/09 06:46:30;;;;;;;51.30;24.00;;;18.30;99.90;;;;;;5002514;28;20045;-70
2023/09/09 06:48:56;;;;;;;54.35;24.45;;;18.40;99.90;;;;;;4995148;28;20037;-72
2023/09/09 06:51:22;;;;;;;53.92;24.38;;;18.40;99.90;;;;;;5004375;28;20026;-71
2023/09/09 06:53:47;;;;;;;54.72;21.17;;;18.40;99.90;;;;;;5001957;28;20445;-73
2023/09/09 06:56:13;;;;;;;41.45;20.83;;;18.40;99.90;;;;;;5011798;28;20052;-71
2023/09/09 06:58:38;;;;;;;49.65;22.52;;;18.40;99.90;;;;;;5001260;28;20522;-71
2023/09/09 07:01:04;;;;;;;50.88;22.80;;;18.50;99.90;;;;;;4999146;28;20042;-71
2023/09/09 07:03:29;;;;;;;43.42;22.52;;;18.60;99.90;;;;;;5005087;28;20080;-71
2023/09/09 07:05:59;;;;;;;48.05;21.33;;;18.60;99.90;;;;;;5001743;28;20069;-70
2023/09/09 07:08:24;;;;;;;45.87;21.83;;;18.70;99.90;;;;;;4995836;28;20429;-71
2023/09/09 07:10:54;;;;;;;52.55;24.10;;;18.70;99.90;;;;;;5007744;28;20285;-71
2023/09/09 07:13:23;;;;;;;51.60;23.27;;;18.80;99.90;;;;;;5003200;28;20038;-70
2023/09/09 07:15:53;;;;;;;41.13;20.48;;;18.80;99.90;;;;;;5005065;28;20048;-71
2023/09/09 07:18:19;;;;;;;48.78;22.13;;;18.90;99.90;;;;;;5000843;28;20077;-71
2023/09/09 07:20:46;;;;;;;45.90;21.77;;;19.00;99.90;;;;;;5008695;28;20088;-71
2023/09/09 07:23:13;;;;;;;46.97;22.90;;;19.00;99.90;;;;;;5000053;28;20034;-73
2023/09/09 07:25:39;;;;;;;50.15;23.08;;;19.00;99.90;;;;;;5003217;28;20046;-72
2023/09/09 07:28:05;;;;;;;42.30;21.30;;;19.10;99.90;;;;;;4994388;28;20107;-70
2023/09/09 07:30:32;;;;;;;40.40;21.10;;;19.10;99.90;;;;;;4999654;28;20035;-71
2023/09/09 07:32:58;;;;;;;43.97;21.42;;;19.20;99.90;;;;;;5004246;28;20049;-72
2023/09/09 07:35:23;;;;;;;47.78;22.75;;;19.20;99.90;;;;;;5000786;28;20445;-71
2023/09/09 07:37:50;;;;;;;45.20;21.98;;;19.30;99.90;;;;;;5008295;28;20038;-71
2023/09/09 07:40:16;;;;;;;52.05;25.15;;;19.40;99.90;;;;;;5001977;28;20044;-70
2023/09/09 07:42:42;;;;;;;55.40;25.95;;;19.50;99.90;;;;;;5006557;28;20038;-71
2023/09/09 07:45:08;;;;;;;55.22;26.55;;;19.60;99.90;;;;;;5008293;28;20056;-70
2023/09/09 07:47:33;;;;;;;53.95;26.55;;;19.70;99.90;;;;;;5001895;28;20034;-70
2023/09/09 07:49:59;;;;;;;49.35;23.63;;;19.80;99.90;;;;;;5005942;28;20065;-71
2023/09/09 07:52:24;;;;;;;48.17;24.67;;;19.80;99.90;;;;;;5004049;28;20117;-72
2023/09/09 07:54:52;;;;;;;50.15;24.98;;;19.90;99.90;;;;;;5000988;28;20069;-70
2023/09/09 07:57:17;;;;;;;48.53;23.50;;;20.00;99.90;;;;;;5008552;28;20031;-72
2023/09/09 07:59:43;;;;;;;51.47;25.88;;;20.00;99.90;;;;;;5003332;28;20034;-71
2023/09/09 08:02:08;;;;;;;52.50;25.38;;;20.10;99.90;;;;;;5005608;28;20123;-73
2023/09/09 08:04:34;;;;;;;53.75;26.52;;;20.30;99.90;;;;;;5000669;28;20046;-70
2023/09/09 08:07:00;;;;;;;60.55;28.50;;;20.40;99.90;;;;;;5004470;28;20041;-72
2023/09/09 08:09:26;;;;;;;49.47;27.33;;;20.50;99.90;;;;;;5002546;28;20045;-70
2023/09/09 08:11:52;;;;;;;55.88;27.42;;;20.50;99.90;;;;;;5002443;28;20042;-69
2023/09/09 08:14:18;;;;;;;54.13;28.63;;;20.50;99.90;;;;;;4997739;28;20026;-72
2023/09/09 08:16:43;;;;;;;54.35;27.73;;;20.70;99.90;;;;;;4999065;28;20101;-71
2023/09/09 08:19:09;;;;;;;61.22;27.80;;;20.80;99.90;;;;;;4999921;28;20944;-71
2023/09/09 08:21:35;;;;;;;48.50;26.38;;;20.90;99.90;;;;;;4999988;28;20072;-70
2023/09/09 08:24:01;;;;;;;51.72;26.83;;;20.90;99.90;;;;;;4994501;28;20034;-71
2023/09/09 08:26:27;;;;;;;51.35;25.35;;;21.10;99.90;;;;;;4999479;28;20037;-71
2023/09/09 08:28:54;;;;;;;51.50;25.60;;;21.20;99.90;;;;;;4992238;28;20137;-71
2023/09/09 08:31:20;;;;;;;49.08;25.75;;;21.20;99.90;;;;;;4995778;28;20034;-70
2023/09/09 08:33:45;;;;;;;48.38;25.00;;;21.30;99.90;;;;;;4996077;28;20030;-71
2023/09/09 08:36:11;;;;;;;47.70;24.42;;;21.40;99.90;;;;;;5001844;28;20031;-71
2023/09/09 08:38:37;;;;;;;48.65;26.35;;;21.50;99.90;;;;;;4995975;28;20040;-72
2023/09/09 08:41:15;;;;;;;46.30;23.42;;;21.70;99.90;;;;;;4996224;28;20045;-71
2023/09/09 08:43:44;;;;;;;45.78;24.27;;;21.70;99.90;;;;;;4999915;28;20131;-72
2023/09/09 08:46:19;;;;;;;43.08;21.90;;;21.90;99.90;;;;;;4992239;28;20038;-70
2023/09/09 08:48:48;;;;;;;41.35;21.38;;;22.00;99.90;;;;;;4995287;28;20119;-72
2023/09/09 08:51:16;;;;;;;39.05;19.75;;;22.00;99.90;;;;;;4997135;28;20042;-72
2023/09/09 08:53:43;;;;;;;36.17;18.50;;;22.10;99.90;;;;;;5001588;28;20180;-70
2023/09/09 08:56:12;;;;;;;37.33;19.42;;;22.20;99.90;;;;;;4998080;28;20174;-73
2023/09/09 08:58:37;;;;;;;33.05;16.77;;;22.30;99.90;;;;;;5000767;28;20048;-71
2023/09/09 09:01:04;;;;;;;34.47;17.58;;;22.30;99.90;;;;;;4997204;28;20046;-70
2023/09/09 09:03:31;;;;;;;35.55;18.08;;;22.40;99.90;;;;;;5000957;28;20038;-72
2023/09/09 09:05:58;;;;;;;29.52;15.82;;;22.50;99.90;;;;;;4996751;28;20042;-71
2023/09/09 09:08:24;;;;;;;34.40;15.07;;;22.60;99.90;;;;;;4998064;28;20053;-71
2023/09/09 09:10:49;;;;;;;28.85;15.93;;;22.70;99.90;;;;;;5002399;28;20042;-71
2023/09/09 09:13:15;;;;;;;28.80;15.85;;;22.80;99.90;;;;;;4999952;28;20052;-72
2023/09/09 09:15:44;;;;;;;31.63;16.50;;;23.00;99.90;;;;;;5004262;28;20033;-71
2023/09/09 09:18:09;;;;;;;25.65;14.75;;;23.20;99.90;;;;;;4999089;28;20049;-73
2023/09/09 09:20:36;;;;;;;25.23;14.13;;;23.30;99.90;;;;;;4998327;28;20053;-72
2023/09/09 09:23:04;;;;;;;34.75;16.33;;;23.40;99.90;;;;;;5006090;28;20042;-70
2023/09/09 09:25:37;;;;;;;27.55;13.57;;;23.50;99.90;;;;;;5004738;28;20061;-72
2023/09/09 09:28:04;;;;;;;25.58;13.70;;;23.50;99.90;;;;;;5005980;28;20716;-71
2023/09/09 09:30:31;;;;;;;23.92;12.32;;;23.70;99.90;;;;;;5004705;28;20100;-71
2023/09/09 09:32:57;;;;;;;22.42;12.52;;;23.70;99.90;;;;;;5004396;28;20038;-71
2023/09/09 09:35:33;;;;;;;18.55;10.98;;;23.80;99.90;;;;;;5002655;28;20498;-71
2023/09/09 09:38:06;;;;;;;18.83;10.90;;;23.80;99.90;;;;;;4999252;28;20598;-70
2023/09/09 09:40:31;;;;;;;27.00;14.45;;;23.90;99.90;;;;;;4994738;28;20414;-71
2023/09/09 09:42:57;;;;;;;30.98;13.90;;;23.90;99.90;;;;;;4995106;28;20026;-70
2023/09/09 09:45:24;;;;;;;21.95;11.38;;;24.00;99.90;;;;;;5009424;28;20045;-70
2023/09/09 09:47:51;;;;;;;16.92;9.88;;;24.00;99.90;;;;;;5004923;28;20121;-70
2023/09/09 09:50:22;;;;;;;19.55;10.38;;;24.10;99.90;;;;;;5002304;28;20046;-72
2023/09/09 09:53:02;;;;;;;18.48;9.57;;;24.10;99.90;;;;;;5004388;28;20038;-71
2023/09/09 09:55:30;;;;;;;19.45;10.30;;;24.30;99.90;;;;;;5000031;28;20114;-71
2023/09/09 09:58:07;;;;;;;15.82;8.82;;;24.30;99.90;;;;;;5006522;28;20116;-71
2023/09/09 10:00:33;;;;;;;13.43;8.02;;;24.50;99.90;;;;;;5001111;28;20042;-70
2023/09/09 10:03:01;;;;;;;13.63;8.65;;;24.60;99.90;;;;;;4999383;28;20529;-73
2023/09/09 10:05:29;;;;;;;16.27;8.70;;;24.80;99.90;;;;;;5003373;28;20030;-72
2023/09/09 10:08:11;;;;;;;13.88;8.18;;;24.80;99.90;;;;;;5002783;28;20066;-72
2023/09/09 10:10:39;;;;;;;15.55;7.68;;;24.90;99.90;;;;;;5001859;28;20141;-71
2023/09/09 10:13:20;;;;;;;14.40;7.78;;;25.00;99.90;;;;;;5005716;28;20037;-71
2023/09/09 10:15:48;;;;;;;13.50;6.70;;;25.10;99.90;;;;;;4996159;28;20109;-71
2023/09/09 10:18:16;;;;;;;7.88;4.93;;;25.20;99.90;;;;;;5002858;28;20049;-72
2023/09/09 10:20:42;;;;;;;9.13;3.97;;;25.20;99.90;;;;;;5003705;28;20030;-71
2023/09/09 10:23:08;;;;;;;6.70;3.80;;;25.30;99.90;;;;;;5001136;28;20036;-70
2023/09/09 10:25:34;;;;;;;5.80;3.78;;;25.40;99.90;;;;;;5005146;28;20057;-71
2023/09/09 10:28:02;;;;;;;6.05;3.55;;;25.50;99.90;;;;;;5000147;28;20045;-71
2023/09/09 10:30:28;;;;;;;13.77;4.57;;;25.50;99.90;;;;;;4997813;28;20034;-70
2023/09/09 10:32:56;;;;;;;7.80;4.78;;;25.60;99.90;;;;;;5002380;28;20117;-71
2023/09/09 10:35:24;;;;;;;7.40;3.75;;;25.60;99.90;;;;;;5002238;28;20044;-72
2023/09/09 10:37:51;;;;;;;9.30;4.15;;;25.60;99.90;;;;;;5004191;28;20060;-70
2023/09/09 10:40:18;;;;;;;6.28;4.13;;;25.70;99.90;;;;;;4997845;28;20049;-72
2023/09/09 10:42:44;;;;;;;11.57;4.55;;;25.70;99.90;;;;;;5006777;28;20112;-70
2023/09/09 10:45:23;;;;;;;5.30;3.88;;;25.70;99.90;;;;;;5001491;28;20034;-71
2023/09/09 10:48:03;;;;;;;8.70;5.00;;;25.70;99.90;;;;;;5005013;28;20251;-71
2023/09/09 10:50:39;;;;;;;7.50;5.03;;;25.70;99.90;;;;;;5001982;28;20418;-71
2023/09/09 10:53:31;;;;;;;6.25;3.45;;;25.70;99.90;;;;;;5002479;28;20397;-70
2023/09/09 10:56:21;;;;;;;8.30;4.03;;;25.70;99.90;;;;;;4996499;28;20042;-71
2023/09/09 10:58:50;;;;;;;7.75;4.38;;;25.70;99.90;;;;;;5010215;28;20150;-71
2023/09/09 11:01:23;;;;;;;6.15;3.42;;;25.80;99.90;;;;;;4996205;28;20048;-72
2023/09/09 11:03:50;;;;;;;5.15;3.70;;;25.80;99.90;;;;;;4999165;28;20058;-72
2023/09/09 11:06:28;;;;;;;5.28;2.95;;;25.80;99.90;;;;;;5002418;28;20034;-71
2023/09/09 11:09:02;;;;;;;6.40;3.13;;;25.80;99.90;;;;;;5005977;28;20102;-71
2023/09/09 11:11:37;;;;;;;5.03;2.95;;;25.80;99.90;;;;;;5006046;28;20621;-71
2023/09/09 11:14:07;;;;;;;6.05;2.35;;;25.80;99.90;;;;;;5003538;28;20383;-72
2023/09/09 11:16:33;;;;;;;7.03;2.78;;;25.80;99.90;;;;;;4996532;28;20554;-71
2023/09/09 11:19:05;;;;;;;5.05;3.20;;;25.70;99.90;;;;;;5002237;28;20049;-72
2023/09/09 11:21:33;;;;;;;5.82;3.13;;;25.80;99.90;;;;;;5000649;28;20042;-72
2023/09/09 11:24:00;;;;;;;7.72;3.00;;;25.80;99.90;;;;;;5000043;28;20041;-70
2023/09/09 11:26:27;;;;;;;4.93;2.60;;;25.70;99.90;;;;;;5004123;28;20038;-71
2023/09/09 11:28:53;;;;;;;3.83;2.70;;;25.70;99.90;;;;;;5003765;28;20449;-72
2023/09/09 11:31:19;;;;;;;7.70;3.83;;;25.70;99.90;;;;;;5005008;28;20045;-71
2023/09/09 11:33:45;;;;;;;5.00;3.03;;;25.70;99.90;;;;;;5002274;28;20030;-71
2023/09/09 11:36:15;;;;;;;4.72;2.70;;;25.80;99.90;;;;;;5005015;28;20498;-70
2023/09/09 11:38:41;;;;;;;3.85;2.08;;;25.80;99.90;;;;;;5005281;28;20034;-72
2023/09/09 11:41:07;;;;;;;5.53;3.25;;;25.90;99.90;;;;;;5015882;28;20065;-70
2023/09/09 11:43:33;;;;;;;4.63;2.63;;;25.90;99.90;;;;;;5001883;28;20030;-70
2023/09/09 11:45:59;;;;;;;4.60;2.67;;;26.00;99.90;;;;;;5000428;28;20095;-72
2023/09/09 11:48:25;;;;;;;4.97;2.42;;;26.00;99.90;;;;;;5001927;28;20041;-74
2023/09/09 11:50:51;;;;;;;5.70;2.70;;;26.00;99.90;;;;;;4999626;28;20143;-71
2023/09/09 11:53:20;;;;;;;5.03;2.47;;;26.00;99.90;;;;;;5004780;28;20470;-70
2023/09/09 11:55:51;;;;;;;6.35;2.95;;;26.00;99.90;;;;;;5004217;28;20029;-71
2023/09/09 11:58:17;;;;;;;5.28;2.38;;;26.00;99.90;;;;;;5002118;28;20091;-71
2023/09/09 12:00:42;;;;;;;4.68;2.40;;;26.00;99.90;;;;;;5004035;28;20046;-71
2023/09/09 12:03:08;;;;;;;5.28;2.63;;;25.90;99.90;;;;;;4999866;28;20030;-71
2023/09/09 12:05:34;;;;;;;7.35;3.30;;;26.00;99.90;;;;;;4999007;28;20048;-72
2023/09/09 12:08:02;;;;;;;5.95;3.00;;;25.90;99.90;;;;;;4995629;28;20030;-70
2023/09/09 12:10:33;;;;;;;7.22;3.15;;;25.90;99.90;;;;;;4992699;28;20049;-70
2023/09/09 12:12:59;;;;;;;6.10;2.60;;;25.90;99.90;;;;;;4997352;28;20046;-71
2023/09/09 12:15:26;;;;;;;4.88;2.80;;;25.90;99.90;;;;;;4990312;28;20514;-71
2023/09/09 12:17:52;;;;;;;6.32;3.20;;;25.90;99.90;;;;;;4999316;28;20398;-71
2023/09/09 12:20:17;;;;;;;5.60;2.35;;;25.90;99.90;;;;;;4996400;28;20029;-71
2023/09/09 12:22:47;;;;;;;10.27;2.92;;;26.00;99.90;;;;;;4997862;28;20041;-70
2023/09/09 12:25:32;;;;;;;5.97;3.08;;;26.00;99.90;;;;;;4997846;28;20035;-70
2023/09/09 12:27:59;;;;;;;4.78;2.97;;;26.00;99.90;;;;;;4997739;28;20386;-70
2023/09/09 12:30:38;;;;;;;4.80;2.80;;;25.90;99.90;;;;;;4994285;28;20030;-72